Nearby METAR Reports

 

NZCH - Christchurch Int, New Zealand
Distance from station: W 10km
Updated: 26 Oct 2021 06:30
Overcast
Overcast
 Wind from SSW
Wind: SSW 9 km/h
Temperature: 11°C
Dew Point: 10°C
Humidity: 94%
Barometer: 1016 hPa
Clouds: Overcast
Visibility: 10 km
Cloud details: Overcast 183 m
2021/10/25 17:30 NZCH 251730Z AUTO 21005KT 9999 OVC006/// 11/10 Q1016 TEMPO 3000 BR